createdAt,value
2023-03-21T00:00:43.084Z,100082.25
2023-03-21T00:03:09.752Z,100085.69
2023-03-21T00:05:43.410Z,100087.00
2023-03-21T00:08:10.168Z,100072.72
2023-03-21T00:10:41.528Z,100073.69
2023-03-21T00:13:15.782Z,100068.66
2023-03-21T00:15:54.093Z,100066.94
2023-03-21T00:18:30.221Z,100065.84
2023-03-21T00:21:33.782Z,100069.88
2023-03-21T00:23:48.494Z,100064.56
2023-03-21T00:26:15.538Z,100058.44
2023-03-21T00:28:43.961Z,100061.06
2023-03-21T00:31:10.987Z,100059.28
2023-03-21T00:33:37.831Z,100056.72
2023-03-21T00:36:05.886Z,100044.00
2023-03-21T00:38:32.867Z,100051.91
2023-03-21T00:41:04.694Z,100045.38
2023-03-21T00:43:35.636Z,100044.56
2023-03-21T00:46:02.385Z,100036.53
2023-03-21T00:48:29.680Z,100034.75
2023-03-21T00:50:57.824Z,100043.84
2023-03-21T00:53:24.475Z,100026.69
2023-03-21T00:55:51.121Z,100039.97
2023-03-21T00:58:18.159Z,100029.84
2023-03-21T01:00:47.968Z,100034.66
2023-03-21T01:03:24.522Z,100029.41
2023-03-21T01:05:52.702Z,100021.94
2023-03-21T01:08:28.029Z,100025.16
2023-03-21T01:11:02.513Z,100030.03
2023-03-21T01:13:29.185Z,100018.34
2023-03-21T01:15:56.912Z,100016.16
2023-03-21T01:18:27.298Z,100018.47
2023-03-21T01:20:56.771Z,100025.94
2023-03-21T01:23:23.992Z,100024.03
2023-03-21T01:25:53.630Z,100015.53
2023-03-21T01:28:20.662Z,100022.41
2023-03-21T01:30:51.510Z,100025.16
2023-03-21T01:33:19.426Z,100021.94
2023-03-21T01:35:55.201Z,100015.59
2023-03-21T01:38:27.451Z,100016.06
2023-03-21T01:40:54.191Z,100015.34
2023-03-21T01:43:27.605Z,100015.34
2023-03-21T01:46:27.362Z,100014.53
2023-03-21T01:49:03.213Z,100010.50
2023-03-21T01:51:34.646Z,100009.19
2023-03-21T01:54:02.028Z,100015.13
2023-03-21T01:56:35.172Z,100016.78
2023-03-21T01:59:11.654Z,100014.78
2023-03-21T02:01:39.695Z,100013.94
2023-03-21T02:04:06.435Z,100008.25
2023-03-21T02:06:46.644Z,100011.13
2023-03-21T02:09:18.713Z,100007.53
2023-03-21T02:11:46.719Z,100015.22
2023-03-21T02:14:28.310Z,100019.19
2023-03-21T02:16:58.284Z,100017.31
2023-03-21T02:19:53.121Z,100016.31
2023-03-21T02:22:29.347Z,100012.88
2023-03-21T02:25:06.184Z,100009.34
2023-03-21T02:28:12.463Z,100014.53
2023-03-21T02:30:57.688Z,100008.28
2023-03-21T02:33:43.216Z,100012.09
2023-03-21T02:36:27.042Z,100007.53
2023-03-21T02:39:06.707Z,100011.06
2023-03-21T02:41:53.357Z,100015.28
2023-03-21T02:44:27.293Z,100019.53
2023-03-21T02:47:27.096Z,100015.97
2023-03-21T02:50:12.588Z,100019.22
2023-03-21T02:52:40.768Z,100021.69
2023-03-21T02:55:15.336Z,100019.63
2023-03-21T02:57:44.399Z,100027.03
2023-03-21T03:00:17.693Z,100022.66
2023-03-21T03:02:45.550Z,100026.41
2023-03-21T03:05:21.757Z,100021.06
2023-03-21T03:08:06.564Z,100017.63
2023-03-21T03:10:51.756Z,100019.22
2023-03-21T03:13:50.430Z,100026.63
2023-03-21T03:16:43.475Z,100021.53
2023-03-21T03:19:28.006Z,100021.50
2023-03-21T03:22:13.202Z,100024.50
2023-03-21T03:24:50.763Z,100025.72
2023-03-21T03:27:24.289Z,100027.13
2023-03-21T03:29:52.958Z,100021.22
2023-03-21T03:32:47.545Z,100024.16
2023-03-21T03:35:18.173Z,100026.09
2023-03-21T03:37:51.615Z,100024.00
2023-03-21T03:40:31.509Z,100024.09
2023-03-21T03:43:08.499Z,100030.53
2023-03-21T03:45:58.974Z,100033.03
2023-03-21T03:48:37.205Z,100031.22
2023-03-21T03:51:16.376Z,100029.28
2023-03-21T03:53:51.162Z,100025.31
2023-03-21T03:56:18.336Z,100024.19
2023-03-21T03:58:46.195Z,100019.34
2023-03-21T04:01:13.363Z,100012.53
2023-03-21T04:03:50.276Z,100021.84
2023-03-21T04:06:19.338Z,100021.09
2023-03-21T04:08:46.205Z,100028.88
2023-03-21T04:11:14.656Z,100030.19
2023-03-21T04:13:41.955Z,100032.91
2023-03-21T04:16:10.145Z,100040.97
2023-03-21T04:18:37.215Z,100036.47
2023-03-21T04:21:08.080Z,100038.84
2023-03-21T04:23:34.679Z,100041.69
2023-03-21T04:26:01.483Z,100034.31
2023-03-21T04:28:28.062Z,100038.00
2023-03-21T04:31:03.780Z,100035.28
2023-03-21T04:33:35.384Z,100042.19
2023-03-21T04:36:02.121Z,100035.31
2023-03-21T04:38:28.765Z,100035.25
2023-03-21T04:40:55.410Z,100032.81
2023-03-21T04:43:22.182Z,100034.69
2023-03-21T04:45:48.949Z,100029.19
2023-03-21T04:48:15.734Z,100026.47
2023-03-21T04:50:42.361Z,100022.44
2023-03-21T04:53:09.208Z,100019.16
2023-03-21T04:55:36.048Z,100026.09
2023-03-21T04:58:04.033Z,100021.53
2023-03-21T05:00:30.962Z,100013.81
2023-03-21T05:02:58.036Z,100021.66
2023-03-21T05:05:25.090Z,100018.78
2023-03-21T05:07:51.710Z,100018.50
2023-03-21T05:10:18.368Z,100026.53
2023-03-21T05:12:45.352Z,100035.44
2023-03-21T05:15:12.048Z,100037.41
2023-03-21T05:17:38.720Z,100037.28
2023-03-21T05:20:06.210Z,100037.22
2023-03-21T05:22:32.834Z,100034.22
2023-03-21T05:24:59.465Z,100032.16
2023-03-21T05:27:26.122Z,100031.13
2023-03-21T05:29:52.720Z,100038.00
2023-03-21T05:32:19.384Z,100029.56
2023-03-21T05:34:46.035Z,100035.28
2023-03-21T05:37:12.969Z,100031.34
2023-03-21T05:39:39.643Z,100039.16
2023-03-21T05:42:06.266Z,100039.63
2023-03-21T05:44:32.890Z,100042.59
2023-03-21T05:46:59.499Z,100043.47
2023-03-21T05:49:26.228Z,100048.22
2023-03-21T05:51:52.854Z,100052.53
2023-03-21T05:54:19.487Z,100062.59
2023-03-21T05:56:46.133Z,100056.03
2023-03-21T05:59:13.182Z,100062.88
2023-03-21T06:01:39.798Z,100066.63
2023-03-21T06:04:06.469Z,100063.72
2023-03-21T06:06:34.953Z,100067.38
2023-03-21T06:09:01.791Z,100068.16
2023-03-21T06:11:34.168Z,100067.44
2023-03-21T06:14:00.761Z,100065.22
2023-03-21T06:16:28.006Z,100067.91
2023-03-21T06:18:55.464Z,100054.53
2023-03-21T06:21:23.071Z,100056.41
2023-03-21T06:23:50.479Z,100051.34
2023-03-21T06:26:17.966Z,100065.41
2023-03-21T06:28:44.588Z,100062.22
2023-03-21T06:31:11.366Z,100068.06
2023-03-21T06:33:38.057Z,100073.81
2023-03-21T06:36:04.889Z,100076.47
2023-03-21T06:38:31.705Z,100072.34
2023-03-21T06:40:58.475Z,100073.66
2023-03-21T06:43:25.139Z,100075.09
2023-03-21T06:45:51.746Z,100080.03
2023-03-21T06:48:18.382Z,100064.88
2023-03-21T06:50:45.172Z,100068.31
2023-03-21T06:53:11.826Z,100053.88
2023-03-21T06:55:38.721Z,100071.50
2023-03-21T06:58:05.567Z,100066.91
2023-03-21T07:00:32.672Z,100064.19
2023-03-21T07:02:59.660Z,100058.78
2023-03-21T07:05:26.426Z,100067.53
2023-03-21T07:07:53.067Z,100073.78
2023-03-21T07:10:19.825Z,100066.78
2023-03-21T07:12:46.516Z,100074.09
2023-03-21T07:15:13.201Z,100075.31
2023-03-21T07:17:39.820Z,100079.63
2023-03-21T07:20:06.910Z,100074.75
2023-03-21T07:22:33.546Z,100076.63
2023-03-21T07:25:05.228Z,100077.06
2023-03-21T07:27:32.254Z,100079.06
2023-03-21T07:29:58.962Z,100083.78
2023-03-21T07:32:25.555Z,100076.97
2023-03-21T07:34:52.241Z,100084.44
2023-03-21T07:37:18.828Z,100075.81
2023-03-21T07:39:45.747Z,100077.28
2023-03-21T07:42:12.406Z,100081.16
2023-03-21T07:44:39.057Z,100080.00
2023-03-21T07:47:06.353Z,100083.97
2023-03-21T07:49:33.230Z,100080.03
2023-03-21T07:52:00.283Z,100087.34
2023-03-21T07:54:26.933Z,100077.19
2023-03-21T07:56:53.518Z,100077.56
2023-03-21T07:59:20.310Z,100075.81
2023-03-21T08:01:46.908Z,100074.03
2023-03-21T08:04:13.574Z,100072.75
2023-03-21T08:06:40.387Z,100070.94
2023-03-21T08:09:07.960Z,100061.50
2023-03-21T08:11:34.711Z,100068.03
2023-03-21T08:14:01.624Z,100067.72
2023-03-21T08:16:28.356Z,100068.88
2023-03-21T08:18:55.005Z,100066.09
2023-03-21T08:21:21.646Z,100073.69
2023-03-21T08:23:48.288Z,100070.06
2023-03-21T08:26:15.038Z,100074.19
2023-03-21T08:28:41.652Z,100070.09
2023-03-21T08:31:10.464Z,100082.44
2023-03-21T08:33:37.352Z,100077.50
2023-03-21T08:36:05.985Z,100079.16
2023-03-21T08:38:33.387Z,100075.22
2023-03-21T08:41:00.699Z,100078.66
2023-03-21T08:43:28.465Z,100079.59
2023-03-21T08:45:56.433Z,100071.78
2023-03-21T08:48:23.361Z,100081.69
2023-03-21T08:50:50.121Z,100082.50
2023-03-21T08:53:16.765Z,100081.56
2023-03-21T08:55:44.175Z,100078.97
2023-03-21T08:58:10.818Z,100081.50
2023-03-21T09:00:37.566Z,100072.91
2023-03-21T09:03:04.230Z,100069.25
2023-03-21T09:05:30.991Z,100073.56
2023-03-21T09:07:57.639Z,100073.31
2023-03-21T09:10:24.325Z,100063.34
2023-03-21T09:12:52.809Z,100068.72
2023-03-21T09:15:20.609Z,100071.66
2023-03-21T09:17:47.756Z,100063.84
2023-03-21T09:20:15.927Z,100066.69
2023-03-21T09:22:42.947Z,100062.00
2023-03-21T09:25:09.743Z,100067.63
2023-03-21T09:27:37.015Z,100060.41
2023-03-21T09:30:04.933Z,100065.34
2023-03-21T09:32:31.576Z,100062.00
2023-03-21T09:34:58.155Z,100061.03
2023-03-21T09:37:24.772Z,100059.25
2023-03-21T09:39:51.409Z,100056.69
2023-03-21T09:42:41.837Z,100055.16
2023-03-21T09:45:30.091Z,100058.94
2023-03-21T09:47:57.517Z,100063.69
2023-03-21T09:50:30.436Z,100067.00
2023-03-21T09:53:01.273Z,100066.13
2023-03-21T09:55:31.687Z,100056.84
2023-03-21T09:58:16.178Z,100059.94
2023-03-21T10:00:45.723Z,100055.69
2023-03-21T10:03:33.175Z,100058.75
2023-03-21T10:06:01.082Z,100051.91
2023-03-21T10:08:32.301Z,100053.31
2023-03-21T10:11:02.985Z,100052.25
2023-03-21T10:13:33.961Z,100049.84
2023-03-21T10:16:09.614Z,100052.38
2023-03-21T10:18:36.669Z,100046.59
2023-03-21T10:21:05.390Z,100051.97
2023-03-21T10:23:32.046Z,100049.03
2023-03-21T10:26:03.475Z,100053.63
2023-03-21T10:31:28.173Z,100046.59
2023-03-21T10:33:58.749Z,100047.25
2023-03-21T10:36:31.579Z,100054.03
2023-03-21T10:39:07.422Z,100050.91
2023-03-21T10:41:34.679Z,100053.03
2023-03-21T10:44:11.956Z,100042.16
2023-03-21T10:46:38.817Z,100044.97
2023-03-21T10:49:08.401Z,100042.00
2023-03-21T10:51:37.632Z,100035.41
2023-03-21T10:54:16.364Z,100044.97
2023-03-21T10:56:58.054Z,100038.25
2023-03-21T10:59:28.093Z,100029.25
2023-03-21T11:01:57.237Z,100028.72
2023-03-21T11:04:29.721Z,100029.13
2023-03-21T11:07:03.732Z,100020.03
2023-03-21T11:09:54.259Z,100011.63
2023-03-21T11:12:32.768Z,100008.03
2023-03-21T11:15:38.575Z,100008.28
2023-03-21T11:18:34.549Z,100003.13
2023-03-21T11:21:07.607Z,100000.22
2023-03-21T11:23:37.608Z,100004.50
2023-03-21T11:26:11.226Z,100002.09
2023-03-21T11:28:40.685Z,99996.16
2023-03-21T11:31:08.474Z,99991.84
2023-03-21T11:33:55.315Z,99996.41
2023-03-21T11:36:21.959Z,99988.56
2023-03-21T11:38:54.802Z,99996.41
2023-03-21T11:41:42.066Z,99980.94
2023-03-21T11:44:26.634Z,99979.78
2023-03-21T11:46:54.402Z,99983.94
2023-03-21T11:49:22.026Z,99975.63
2023-03-21T11:52:00.569Z,99971.31
2023-03-21T11:54:51.619Z,99964.34
2023-03-21T11:57:35.634Z,99970.28
2023-03-21T12:00:21.491Z,99966.63
2023-03-21T12:03:17.819Z,99965.66
2023-03-21T12:05:53.984Z,99962.63
2023-03-21T12:08:24.586Z,99956.09
2023-03-21T12:10:59.380Z,99959.66
2023-03-21T12:13:38.701Z,99957.56
2023-03-21T12:16:40.740Z,99951.78
2023-03-21T12:19:34.490Z,99954.41
2023-03-21T12:22:01.112Z,99951.84
2023-03-21T12:24:57.153Z,99950.28
2023-03-21T12:27:44.692Z,99947.22
2023-03-21T12:30:52.957Z,99942.94
2023-03-21T12:33:34.573Z,99941.25
2023-03-21T12:36:07.384Z,99944.72
2023-03-21T12:38:55.134Z,99944.47
2023-03-21T12:42:00.835Z,99933.72
2023-03-21T12:44:32.344Z,99941.06
2023-03-21T12:47:06.537Z,99939.28
2023-03-21T12:49:39.832Z,99941.00
2023-03-21T12:52:14.331Z,99933.59
2023-03-21T12:54:51.111Z,99930.38
2023-03-21T12:57:23.325Z,99922.81
2023-03-21T12:59:59.242Z,99923.09
2023-03-21T13:02:57.422Z,99927.88
2023-03-21T13:05:23.938Z,99917.88
2023-03-21T13:07:57.094Z,99915.16
2023-03-21T13:10:24.072Z,99914.81
2023-03-21T13:13:33.629Z,99912.97
2023-03-21T13:16:09.271Z,99904.97
2023-03-21T13:18:40.746Z,99904.84
2023-03-21T13:21:36.463Z,99914.22
2023-03-21T13:24:18.017Z,99904.00
2023-03-21T13:26:49.134Z,99896.63
2023-03-21T13:30:06.467Z,99898.97
2023-03-21T13:32:39.758Z,99900.59
2023-03-21T13:35:20.002Z,99905.91
2023-03-21T13:37:58.557Z,99911.53
2023-03-21T13:40:37.439Z,99904.47
2023-03-21T13:43:04.513Z,99909.06
2023-03-21T13:45:44.175Z,99901.44
2023-03-21T13:48:59.969Z,99896.28
2023-03-21T13:51:46.260Z,99902.28
2023-03-21T13:54:17.258Z,99898.19
2023-03-21T13:56:46.764Z,99899.25
2023-03-21T13:59:19.897Z,99899.00
2023-03-21T14:02:04.318Z,99892.03
2023-03-21T14:04:41.892Z,99881.41
2023-03-21T14:07:22.678Z,99886.22
2023-03-21T14:09:52.605Z,99877.25
2023-03-21T14:12:30.206Z,99873.69
2023-03-21T14:15:16.815Z,99875.41
2023-03-21T14:18:28.089Z,99872.19
2023-03-21T14:21:07.027Z,99858.72
2023-03-21T14:23:38.842Z,99864.06
2023-03-21T14:26:06.385Z,99859.13
2023-03-21T14:28:33.643Z,99849.97
2023-03-21T14:31:01.366Z,99852.34
2023-03-21T14:33:41.358Z,99855.16
2023-03-21T14:36:14.764Z,99844.38
2023-03-21T14:38:41.400Z,99848.19
2023-03-21T14:41:28.303Z,99847.78
2023-03-21T14:44:11.613Z,99845.78
2023-03-21T14:46:39.437Z,99841.94
2023-03-21T14:49:29.510Z,99844.03
2023-03-21T14:52:00.462Z,99841.13
2023-03-21T14:54:28.688Z,99838.44
2023-03-21T14:57:03.952Z,99837.53
2023-03-21T14:59:37.007Z,99835.72
2023-03-21T15:02:16.334Z,99845.59
2023-03-21T15:04:50.663Z,99841.50
2023-03-21T15:07:25.674Z,99841.50
2023-03-21T15:09:57.518Z,99834.28
2023-03-21T15:12:24.374Z,99831.09
2023-03-21T15:14:51.378Z,99838.91
2023-03-21T15:17:19.367Z,99827.94
2023-03-21T15:19:46.197Z,99826.06
2023-03-21T15:22:25.890Z,99826.75
2023-03-21T15:25:01.231Z,99822.28
2023-03-21T15:27:32.865Z,99829.25
2023-03-21T15:29:59.680Z,99821.09
2023-03-21T15:32:28.802Z,99819.47
2023-03-21T15:35:05.607Z,99823.09
2023-03-21T15:37:35.707Z,99822.66
2023-03-21T15:40:15.036Z,99824.69
2023-03-21T15:42:41.977Z,99817.16
2023-03-21T15:45:21.250Z,99821.88
2023-03-21T15:47:52.025Z,99823.00
2023-03-21T15:50:38.425Z,99810.34
2023-03-21T15:53:11.644Z,99819.47
2023-03-21T15:55:56.288Z,99814.34
2023-03-21T15:58:26.319Z,99826.25
2023-03-21T16:00:55.747Z,99830.38
2023-03-21T16:03:41.797Z,99824.88
2023-03-21T16:06:21.241Z,99824.16
2023-03-21T16:08:49.515Z,99826.59
2023-03-21T16:11:16.145Z,99836.34
2023-03-21T16:13:42.908Z,99838.31
2023-03-21T16:16:20.495Z,99836.66
2023-03-21T16:18:47.400Z,99839.25
2023-03-21T16:21:16.435Z,99834.59
2023-03-21T16:23:43.140Z,99837.47
2023-03-21T16:26:12.302Z,99838.59
2023-03-21T16:28:39.034Z,99839.91
2023-03-21T16:31:05.845Z,99843.06
2023-03-21T16:33:32.486Z,99841.66
2023-03-21T16:35:59.190Z,99842.94
2023-03-21T16:38:25.945Z,99834.50
2023-03-21T16:40:52.584Z,99838.69
2023-03-21T16:43:19.407Z,99852.56
2023-03-21T16:45:46.020Z,99847.91
2023-03-21T16:48:12.803Z,99852.00
2023-03-21T16:50:45.299Z,99863.56
2023-03-21T16:53:11.959Z,99863.88
2023-03-21T16:55:38.799Z,99856.94
2023-03-21T16:58:05.800Z,99860.56
2023-03-21T17:00:33.003Z,99867.28
2023-03-21T17:03:02.112Z,99873.81
2023-03-21T17:05:29.692Z,99868.47
2023-03-21T17:07:56.795Z,99873.38
2023-03-21T17:10:26.535Z,99878.00
2023-03-21T17:12:54.099Z,99871.94
2023-03-21T17:15:21.676Z,99875.00
2023-03-21T17:17:49.163Z,99873.72
2023-03-21T17:20:24.186Z,99876.09
2023-03-21T17:22:51.013Z,99881.88
2023-03-21T17:25:19.083Z,99882.72
2023-03-21T17:27:46.621Z,99889.50
2023-03-21T17:30:33.182Z,99880.22
2023-03-21T17:33:00.300Z,99882.81
2023-03-21T17:35:27.820Z,99883.84
2023-03-21T17:37:54.847Z,99884.91
2023-03-21T17:40:25.265Z,99893.03
2023-03-21T17:42:52.535Z,99887.34
2023-03-21T17:45:20.195Z,99886.09
2023-03-21T17:47:46.859Z,99898.00
2023-03-21T17:50:17.431Z,99892.56
2023-03-21T17:52:44.112Z,99891.34
2023-03-21T17:55:10.949Z,99897.84
2023-03-21T17:57:37.626Z,99897.63
2023-03-21T18:00:12.052Z,99905.59
2023-03-21T18:02:39.984Z,99902.69
2023-03-21T18:05:07.942Z,99907.25
2023-03-21T18:08:04.453Z,99913.19
2023-03-21T18:10:26.562Z,99909.34
2023-03-21T18:12:53.530Z,99916.25
2023-03-21T18:15:20.230Z,99916.09
2023-03-21T18:17:47.629Z,99916.72
2023-03-21T18:20:17.008Z,99913.50
2023-03-21T18:22:44.527Z,99909.81
2023-03-21T18:25:12.547Z,99920.22
2023-03-21T18:28:02.075Z,99920.53
2023-03-21T18:30:47.683Z,99920.53
2023-03-21T18:33:14.411Z,99916.22
2023-03-21T18:35:41.121Z,99921.19
2023-03-21T18:38:07.982Z,99925.59
2023-03-21T18:40:34.780Z,99923.19
2023-03-21T18:43:59.211Z,99924.91
2023-03-21T18:45:48.617Z,99927.81
2023-03-21T18:48:15.290Z,99928.75
2023-03-21T18:50:42.224Z,99928.00
2023-03-21T18:53:08.871Z,99936.03
2023-03-21T18:55:45.935Z,99933.31
2023-03-21T18:58:14.620Z,99934.97
2023-03-21T19:00:42.147Z,99930.94
2023-03-21T19:03:21.727Z,99932.66
2023-03-21T19:06:00.468Z,99934.69
2023-03-21T19:08:27.170Z,99926.31
2023-03-21T19:10:54.016Z,99934.06
2023-03-21T19:13:20.651Z,99943.19
2023-03-21T19:15:49.575Z,99932.41
2023-03-21T19:21:03.614Z,99936.06
2023-03-21T19:23:40.819Z,99934.47
2023-03-21T19:26:16.889Z,99937.25
2023-03-21T19:28:43.524Z,99939.06
2023-03-21T19:31:10.168Z,99942.19
2023-03-21T19:33:36.842Z,99949.47
2023-03-21T19:36:17.570Z,99946.03
2023-03-21T19:38:47.789Z,99943.31
2023-03-21T19:41:14.470Z,99943.44
2023-03-21T19:43:52.795Z,99944.06
2023-03-21T19:46:20.746Z,99949.03
2023-03-21T19:48:47.401Z,99953.91
2023-03-21T19:51:27.473Z,99946.31
2023-03-21T19:53:55.144Z,99946.59
2023-03-21T19:56:26.275Z,99957.47
2023-03-21T19:58:54.210Z,99956.69
2023-03-21T20:01:20.891Z,99953.50
2023-03-21T20:03:47.632Z,99956.53
2023-03-21T20:06:14.483Z,99955.38
2023-03-21T20:11:27.904Z,99953.34
2023-03-21T20:13:54.587Z,99956.16
2023-03-21T20:16:21.485Z,99960.19
2023-03-21T20:18:48.172Z,99957.66
2023-03-21T20:21:17.885Z,99957.91
2023-03-21T20:23:48.185Z,99962.28
2023-03-21T20:26:15.182Z,99960.75
2023-03-21T20:28:55.916Z,99967.09
2023-03-21T20:31:28.565Z,99970.00
2023-03-21T20:33:55.338Z,99971.28
2023-03-21T20:39:08.827Z,99970.66
2023-03-21T20:41:35.429Z,99964.31
2023-03-21T20:46:48.782Z,99966.41
2023-03-21T20:49:15.633Z,99968.66
2023-03-21T20:52:40.863Z,99974.69
2023-03-21T20:54:29.273Z,99973.97
2023-03-21T20:56:55.912Z,99980.03
2023-03-21T20:59:27.287Z,99976.00
2023-03-21T21:01:55.680Z,99971.03
2023-03-21T21:04:41.199Z,99974.16
2023-03-21T21:07:12.688Z,99976.69
2023-03-21T21:09:39.531Z,99975.59
2023-03-21T21:12:07.799Z,99974.22
2023-03-21T21:14:35.617Z,99977.63
2023-03-21T21:17:07.667Z,99984.00
2023-03-21T21:19:39.252Z,99981.78
2023-03-21T21:22:05.929Z,99978.47
2023-03-21T21:24:32.597Z,99978.81
2023-03-21T21:26:59.345Z,99982.22
2023-03-21T21:29:26.015Z,99983.50
2023-03-21T21:31:52.731Z,99988.09
2023-03-21T21:34:19.480Z,99997.38
2023-03-21T21:36:46.125Z,99998.69
2023-03-21T21:39:12.974Z,100010.63
2023-03-21T21:41:39.925Z,100017.19
2023-03-21T21:44:06.569Z,100023.94
2023-03-21T21:46:33.296Z,100022.94
2023-03-21T21:49:00.091Z,100026.66
2023-03-21T21:51:26.703Z,100035.06
2023-03-21T21:53:53.958Z,100036.16
2023-03-21T21:56:20.568Z,100028.34
2023-03-21T21:58:47.310Z,100037.91
2023-03-21T22:01:13.982Z,100041.78
2023-03-21T22:03:40.799Z,100043.88
2023-03-21T22:06:09.331Z,100043.19
2023-03-21T22:08:36.112Z,100040.72
2023-03-21T22:11:04.088Z,100041.03
2023-03-21T22:13:30.839Z,100043.28
2023-03-21T22:15:58.075Z,100037.53
2023-03-21T22:18:24.695Z,100037.28
2023-03-21T22:20:51.332Z,100043.03
2023-03-21T22:23:17.949Z,100040.03
2023-03-21T22:25:49.855Z,100042.47
2023-03-21T22:28:16.495Z,100044.41
2023-03-21T22:30:43.453Z,100043.88
2023-03-21T22:33:10.295Z,100035.16
2023-03-21T22:35:37.546Z,100043.16
2023-03-21T22:38:04.325Z,100048.41
2023-03-21T22:40:31.067Z,100047.44
2023-03-21T22:42:57.808Z,100041.34
2023-03-21T22:45:24.458Z,100048.53
2023-03-21T22:47:51.213Z,100047.00
2023-03-21T22:50:17.884Z,100044.56
2023-03-21T22:52:44.573Z,100041.75
2023-03-21T22:55:11.171Z,100035.63
2023-03-21T22:57:37.918Z,100039.78
2023-03-21T23:00:07.754Z,100044.00
2023-03-21T23:02:34.399Z,100038.94
2023-03-21T23:05:00.971Z,100033.59
2023-03-21T23:07:27.718Z,100036.28
2023-03-21T23:09:56.361Z,100033.69
2023-03-21T23:12:23.099Z,100034.50
2023-03-21T23:14:49.757Z,100030.53
2023-03-21T23:17:16.418Z,100032.16
2023-03-21T23:19:43.250Z,100033.81
2023-03-21T23:22:09.877Z,100024.34
2023-03-21T23:24:36.492Z,100028.22
2023-03-21T23:27:03.224Z,100033.00
2023-03-21T23:29:30.062Z,100027.72
2023-03-21T23:31:56.662Z,100029.41
2023-03-21T23:34:23.439Z,100020.75
2023-03-21T23:36:50.117Z,100024.31
2023-03-21T23:39:16.740Z,100026.84
2023-03-21T23:41:43.492Z,100031.16
2023-03-21T23:44:10.125Z,100028.63
2023-03-21T23:46:36.836Z,100035.56
2023-03-21T23:49:03.643Z,100036.28
2023-03-21T23:51:30.272Z,100030.41
2023-03-21T23:53:56.965Z,100027.78
2023-03-21T23:56:25.613Z,100034.28
2023-03-21T23:58:52.565Z,100032.53
